Time;durP1;ratioP1;P1;durP2;ratioP2;P2;SDS_P1;SDS_P2;PMS_P1;PMS_P2;Temp;Humidity;BMP_temperature;BMP_pressure;BME280_temperature;BME280_humidity;BME280_pressure;Samples;Min_cycle;Max_cycle;Signal;HPM_P1;HPM_P2
2023/04/05 00:01:34;;;;;;;1.93;1.47;;;10.50;99.90;;;;;;5007765;28;20521;-48
2023/04/05 00:04:03;;;;;;;3.10;1.83;;;10.50;99.90;;;;;;5006218;28;20465;-49
2023/04/05 00:06:32;;;;;;;2.17;1.63;;;10.50;99.90;;;;;;5004814;28;20504;-48
2023/04/05 00:09:02;;;;;;;3.43;2.47;;;10.50;99.90;;;;;;5009211;28;20492;-48
2023/04/05 00:11:32;;;;;;;3.63;2.20;;;10.50;99.90;;;;;;5004510;28;20497;-49
2023/04/05 00:14:02;;;;;;;3.20;2.10;;;10.50;99.90;;;;;;5008217;28;20426;-48
2023/04/05 00:16:32;;;;;;;3.43;2.20;;;10.50;99.90;;;;;;5001751;28;20480;-48
2023/04/05 00:19:00;;;;;;;2.77;1.83;;;10.50;99.90;;;;;;5000543;28;20456;-50
2023/04/05 00:21:29;;;;;;;2.20;1.63;;;10.50;99.90;;;;;;5005454;28;20455;-49
2023/04/05 00:23:58;;;;;;;2.70;2.50;;;10.50;99.90;;;;;;5004935;28;20442;-47
2023/04/05 00:26:27;;;;;;;2.83;1.87;;;10.50;99.90;;;;;;5007414;28;21018;-48
2023/04/05 00:28:58;;;;;;;1.90;1.70;;;10.50;99.90;;;;;;5007868;28;20453;-48
2023/04/05 00:31:26;;;;;;;2.63;1.90;;;10.50;99.90;;;;;;5006571;28;20937;-50
2023/04/05 00:33:57;;;;;;;2.73;1.97;;;10.50;99.90;;;;;;5009505;28;20461;-48
2023/04/05 00:36:26;;;;;;;2.13;1.93;;;10.40;99.90;;;;;;5004535;28;20883;-49
2023/04/05 00:38:55;;;;;;;2.17;1.70;;;10.50;99.90;;;;;;4997133;28;20446;-49
2023/04/05 00:41:24;;;;;;;2.63;2.43;;;10.40;99.90;;;;;;5008752;28;20955;-48
2023/04/05 00:43:53;;;;;;;1.97;1.77;;;10.40;99.90;;;;;;5009238;28;20444;-48
2023/04/05 00:46:21;;;;;;;2.20;2.00;;;10.40;99.90;;;;;;5003281;28;20532;-50
2023/04/05 00:48:50;;;;;;;2.07;1.97;;;10.40;99.90;;;;;;5006210;28;20442;-50
2023/04/05 00:51:22;;;;;;;3.73;2.30;;;10.40;99.90;;;;;;5007922;28;20496;-49
2023/04/05 00:53:52;;;;;;;2.27;2.07;;;10.40;99.90;;;;;;5008593;28;20478;-49
2023/04/05 00:56:23;;;;;;;2.27;1.83;;;10.40;99.90;;;;;;5012811;28;21076;-49
2023/04/05 00:58:52;;;;;;;3.00;2.03;;;10.40;99.90;;;;;;5008498;28;20449;-49
2023/04/05 01:01:22;;;;;;;2.13;1.87;;;10.40;99.90;;;;;;5011156;28;20557;-49
2023/04/05 01:03:54;;;;;;;2.33;1.90;;;10.40;99.90;;;;;;5025791;28;20948;-48
2023/04/05 01:06:37;;;;;;;2.83;1.90;;;10.40;99.90;;;;;;5006358;28;20457;-50
2023/04/05 01:09:09;;;;;;;2.70;2.50;;;10.40;99.90;;;;;;5008043;28;20779;-49
2023/04/05 01:11:40;;;;;;;2.60;2.03;;;10.40;99.90;;;;;;5023752;28;20836;-48
2023/04/05 01:14:08;;;;;;;2.77;2.17;;;10.40;99.90;;;;;;5010449;28;20831;-48
2023/04/05 01:16:37;;;;;;;3.00;1.93;;;10.40;99.90;;;;;;5017352;28;20481;-50
2023/04/05 01:19:08;;;;;;;2.43;2.23;;;10.40;99.90;;;;;;5007698;28;20877;-49
2023/04/05 01:22:12;;;;;;;2.20;2.00;;;10.40;99.90;;;;;;5007908;28;20560;-49
2023/04/05 01:25:10;;;;;;;2.73;2.43;;;10.40;99.90;;;;;;4962575;28;20491;-49
2023/04/05 01:28:01;;;;;;;2.17;1.97;;;10.40;99.90;;;;;;5005452;28;20526;-49
2023/04/05 01:30:35;;;;;;;2.20;1.93;;;10.40;99.90;;;;;;5011590;28;20440;-49
2023/04/05 01:33:14;;;;;;;2.03;1.60;;;10.40;99.90;;;;;;5027367;28;20483;-48
2023/04/05 01:35:50;;;;;;;2.67;2.20;;;10.40;99.90;;;;;;5014135;28;20866;-49
2023/04/05 01:38:24;;;;;;;2.20;1.80;;;10.40;99.90;;;;;;5004738;28;20440;-50
2023/04/05 01:40:54;;;;;;;3.00;2.53;;;10.40;99.90;;;;;;5001953;28;20480;-49
2023/04/05 01:43:23;;;;;;;2.97;2.10;;;10.40;99.90;;;;;;5009121;28;20437;-46
2023/04/05 01:45:53;;;;;;;2.60;2.40;;;10.40;99.90;;;;;;5008807;28;20562;-48
2023/04/05 01:48:22;;;;;;;2.30;2.10;;;10.40;99.90;;;;;;5007524;28;20445;-48
2023/04/05 01:50:50;;;;;;;2.63;1.97;;;10.30;99.90;;;;;;5005430;28;20559;-50
2023/04/05 01:53:19;;;;;;;2.30;2.10;;;10.30;99.90;;;;;;5006188;28;20457;-49
2023/04/05 01:55:47;;;;;;;3.30;2.33;;;10.30;99.90;;;;;;5004422;28;20464;-49
2023/04/05 01:58:16;;;;;;;2.30;1.83;;;10.30;99.90;;;;;;5007478;28;20450;-49
2023/04/05 02:00:45;;;;;;;2.97;2.20;;;10.30;99.90;;;;;;5008432;28;20457;-49
2023/04/05 02:03:15;;;;;;;3.37;2.33;;;10.30;99.90;;;;;;5010099;28;20433;-48
2023/04/05 02:05:43;;;;;;;2.30;2.10;;;10.30;99.90;;;;;;5007913;28;20470;-50
2023/04/05 02:08:13;;;;;;;2.83;2.30;;;10.30;99.90;;;;;;5017159;28;20449;-49
2023/04/05 02:10:41;;;;;;;2.77;2.20;;;10.30;99.90;;;;;;5005153;28;20906;-48
2023/04/05 02:13:12;;;;;;;2.73;2.27;;;10.30;99.90;;;;;;5010959;28;20468;-49
2023/04/05 02:15:41;;;;;;;2.40;2.03;;;10.30;99.90;;;;;;5006699;28;20503;-49
2023/04/05 02:18:10;;;;;;;3.37;2.10;;;10.30;99.90;;;;;;5008480;28;20448;-50
2023/04/05 02:20:40;;;;;;;4.07;2.30;;;10.30;99.90;;;;;;5004895;28;20562;-48
2023/04/05 02:23:09;;;;;;;2.60;2.30;;;10.30;99.90;;;;;;5012928;28;20438;-48
2023/04/05 02:25:38;;;;;;;4.60;2.20;;;10.30;99.90;;;;;;5003406;28;20499;-49
2023/04/05 02:28:07;;;;;;;2.80;1.93;;;10.30;99.90;;;;;;5006850;28;20429;-48
2023/04/05 02:30:38;;;;;;;2.20;1.90;;;10.30;99.90;;;;;;5006702;28;20555;-48
2023/04/05 02:33:09;;;;;;;2.10;1.90;;;10.30;99.90;;;;;;5007013;28;20479;-48
2023/04/05 02:35:39;;;;;;;3.70;3.30;;;10.30;99.90;;;;;;5008603;28;20468;-48
2023/04/05 02:38:08;;;;;;;2.10;1.90;;;10.30;99.90;;;;;;5010855;28;20460;-48
2023/04/05 02:40:40;;;;;;;2.23;2.03;;;10.30;99.90;;;;;;5002891;28;20893;-47
2023/04/05 02:43:13;;;;;;;3.47;2.17;;;10.20;99.90;;;;;;5008529;28;20592;-48
2023/04/05 02:45:41;;;;;;;3.00;2.50;;;10.20;99.90;;;;;;5007686;28;20476;-50
2023/04/05 02:48:12;;;;;;;2.87;2.40;;;10.20;99.90;;;;;;5023205;28;20452;-50
2023/04/05 02:50:42;;;;;;;3.10;1.90;;;10.20;99.90;;;;;;5005237;28;20483;-49
2023/04/05 02:53:11;;;;;;;2.63;2.10;;;10.20;99.90;;;;;;5001077;28;20470;-48
2023/04/05 02:55:41;;;;;;;2.97;2.67;;;10.20;99.90;;;;;;5001419;28;20469;-49
2023/04/05 02:58:09;;;;;;;3.33;2.00;;;10.20;99.90;;;;;;5009826;28;20513;-49
2023/04/05 03:00:49;;;;;;;2.30;1.90;;;10.20;99.90;;;;;;5004381;28;20470;-48
2023/04/05 03:03:27;;;;;;;3.07;2.57;;;10.20;99.90;;;;;;5005195;28;20444;-49
2023/04/05 03:06:08;;;;;;;2.80;2.20;;;10.20;99.90;;;;;;5006640;28;20465;-49
2023/04/05 03:08:48;;;;;;;2.13;1.93;;;10.20;99.90;;;;;;5006938;28;20441;-50
2023/04/05 03:11:22;;;;;;;2.50;2.30;;;10.20;99.90;;;;;;5006130;28;20855;-48
2023/04/05 03:13:55;;;;;;;2.70;2.20;;;10.20;99.90;;;;;;5011124;28;20522;-49
2023/04/05 03:16:49;;;;;;;1.80;1.70;;;10.20;99.90;;;;;;4993042;28;21079;-47
2023/04/05 03:19:34;;;;;;;2.20;2.00;;;10.20;99.90;;;;;;5006435;28;20452;-48
2023/04/05 03:22:16;;;;;;;3.30;2.27;;;10.20;99.90;;;;;;5007614;28;20469;-49
2023/04/05 03:24:45;;;;;;;2.03;1.83;;;10.20;99.90;;;;;;5006745;28;20491;-47
2023/04/05 03:27:17;;;;;;;3.13;2.10;;;10.20;99.90;;;;;;5001517;28;20541;-47
2023/04/05 03:29:58;;;;;;;2.70;2.33;;;10.20;99.90;;;;;;5009342;28;20441;-48
2023/04/05 03:32:27;;;;;;;2.00;1.80;;;10.20;99.90;;;;;;5004747;28;20555;-49
2023/04/05 03:35:03;;;;;;;2.93;2.40;;;10.20;99.90;;;;;;4998774;28;20469;-48
2023/04/05 03:37:34;;;;;;;3.77;2.50;;;10.20;99.90;;;;;;5019243;28;20444;-49
2023/04/05 03:40:09;;;;;;;1.87;1.70;;;10.10;99.90;;;;;;5005168;28;20981;-50
2023/04/05 03:42:38;;;;;;;3.50;2.57;;;10.10;99.90;;;;;;5019926;28;20510;-48
2023/04/05 03:45:08;;;;;;;2.00;1.80;;;10.20;99.90;;;;;;5007862;28;21096;-48
2023/04/05 03:47:36;;;;;;;2.47;2.20;;;10.10;99.90;;;;;;5006284;28;20822;-48
2023/04/05 03:50:08;;;;;;;2.60;2.20;;;10.10;99.90;;;;;;5008961;28;20435;-48
2023/04/05 03:52:38;;;;;;;2.47;2.27;;;10.10;99.90;;;;;;5002029;28;20469;-49
2023/04/05 03:55:08;;;;;;;2.00;1.87;;;10.10;99.90;;;;;;5008191;28;20469;-47
2023/04/05 03:57:38;;;;;;;3.03;2.30;;;10.10;99.90;;;;;;5005584;28;20557;-50
2023/04/05 04:00:22;;;;;;;4.17;2.20;;;10.10;99.90;;;;;;4994532;28;20881;-49
2023/04/05 04:03:14;;;;;;;2.33;2.10;;;10.10;99.90;;;;;;5002136;28;20480;-48
2023/04/05 04:05:46;;;;;;;2.47;2.20;;;10.10;99.90;;;;;;5004233;28;20921;-47
2023/04/05 04:08:16;;;;;;;1.70;1.60;;;10.10;99.90;;;;;;5007671;28;20577;-48
2023/04/05 04:10:45;;;;;;;3.60;2.50;;;10.10;99.90;;;;;;5003734;28;20480;-49
2023/04/05 04:13:21;;;;;;;2.97;2.23;;;10.10;99.90;;;;;;5007160;28;20934;-49
2023/04/05 04:16:01;;;;;;;2.87;2.57;;;10.10;99.90;;;;;;5003193;28;20543;-49
2023/04/05 04:18:53;;;;;;;2.07;1.87;;;10.10;99.90;;;;;;5006691;28;20452;-48
2023/04/05 04:21:50;;;;;;;4.63;2.17;;;10.10;99.90;;;;;;5000422;28;20453;-49
2023/04/05 04:24:53;;;;;;;3.50;2.60;;;10.00;99.90;;;;;;4984212;28;20535;-47
2023/04/05 04:27:54;;;;;;;2.93;2.57;;;10.00;99.90;;;;;;4987022;28;20449;-48
2023/04/05 04:30:46;;;;;;;2.87;2.47;;;10.00;99.90;;;;;;4993076;28;21037;-48
2023/04/05 04:33:33;;;;;;;2.63;1.90;;;10.10;99.90;;;;;;4989947;28;20456;-49
2023/04/05 04:36:14;;;;;;;2.40;2.20;;;10.00;99.90;;;;;;4993645;28;20514;-49
2023/04/05 04:39:06;;;;;;;2.20;2.00;;;10.00;99.90;;;;;;4987230;28;20454;-49
2023/04/05 04:42:00;;;;;;;2.73;2.20;;;10.00;99.90;;;;;;5015027;28;20468;-49
2023/04/05 04:44:47;;;;;;;3.00;1.70;;;10.00;99.90;;;;;;4998333;28;20441;-50
2023/04/05 04:47:42;;;;;;;2.63;2.00;;;10.00;99.90;;;;;;4992601;28;20592;-47
2023/04/05 04:50:30;;;;;;;2.30;2.10;;;10.00;99.90;;;;;;5006725;28;20836;-50
2023/04/05 04:53:00;;;;;;;3.10;2.27;;;10.00;99.90;;;;;;5008612;28;20440;-49
2023/04/05 04:55:29;;;;;;;2.43;2.17;;;10.00;99.90;;;;;;5005563;28;20501;-48
2023/04/05 04:57:59;;;;;;;2.43;2.23;;;10.00;99.90;;;;;;5004539;28;20449;-49
2023/04/05 05:00:28;;;;;;;2.27;2.00;;;10.00;99.90;;;;;;5009671;28;20441;-48
2023/04/05 05:02:57;;;;;;;2.53;2.10;;;10.00;99.90;;;;;;5006251;28;20441;-49
2023/04/05 05:05:26;;;;;;;2.20;1.93;;;9.90;99.90;;;;;;5005204;28;20472;-49
2023/04/05 05:07:55;;;;;;;2.80;2.30;;;10.00;99.90;;;;;;4996133;28;20446;-49
2023/04/05 05:10:24;;;;;;;2.20;2.00;;;9.90;99.90;;;;;;5003016;28;20846;-48
2023/04/05 05:12:56;;;;;;;2.67;2.03;;;9.90;99.90;;;;;;5007415;28;20537;-47
2023/04/05 05:15:26;;;;;;;3.30;2.33;;;9.90;99.90;;;;;;5005063;28;20636;-49
2023/04/05 05:17:55;;;;;;;3.03;2.23;;;9.90;99.90;;;;;;5005838;28;21024;-48
2023/04/05 05:20:24;;;;;;;3.00;2.70;;;9.90;99.90;;;;;;5011494;28;20934;-49
2023/04/05 05:22:52;;;;;;;2.83;2.03;;;9.90;99.90;;;;;;5006392;28;20838;-47
2023/04/05 05:25:21;;;;;;;2.37;1.90;;;9.90;99.90;;;;;;5014261;28;20825;-49
2023/04/05 05:27:50;;;;;;;2.63;2.43;;;9.90;99.90;;;;;;5003399;28;20910;-50
2023/04/05 05:30:22;;;;;;;2.30;2.10;;;9.90;99.90;;;;;;5008111;28;20439;-47
2023/04/05 05:32:52;;;;;;;3.20;1.90;;;9.90;99.90;;;;;;5002739;28;20470;-48
2023/04/05 05:35:21;;;;;;;3.00;2.20;;;9.90;99.90;;;;;;5006396;28;20460;-48
2023/04/05 05:37:51;;;;;;;3.60;2.20;;;9.90;99.90;;;;;;5005142;28;20477;-47
2023/04/05 05:40:20;;;;;;;2.73;2.20;;;9.90;99.90;;;;;;5007341;28;20511;-49
2023/04/05 05:42:49;;;;;;;2.70;2.47;;;9.90;99.90;;;;;;5007694;28;20461;-48
2023/04/05 05:45:18;;;;;;;2.53;2.30;;;9.90;99.90;;;;;;5016384;28;20445;-48
2023/04/05 05:47:46;;;;;;;2.70;2.20;;;9.90;99.90;;;;;;5009799;28;20453;-47
2023/04/05 05:50:19;;;;;;;3.63;2.40;;;9.80;99.90;;;;;;5013783;28;20949;-49
2023/04/05 05:52:48;;;;;;;3.13;2.73;;;9.80;99.90;;;;;;5002230;28;20469;-47
2023/04/05 05:55:16;;;;;;;4.63;3.00;;;9.80;99.90;;;;;;5003360;28;21245;-48
2023/04/05 05:57:45;;;;;;;2.73;2.20;;;9.90;99.90;;;;;;5008079;28;20495;-49
2023/04/05 06:00:15;;;;;;;2.30;2.10;;;9.80;99.90;;;;;;5010452;28;20481;-49
2023/04/05 06:02:44;;;;;;;2.97;2.43;;;9.80;99.90;;;;;;5006255;28;20547;-47
2023/04/05 06:05:13;;;;;;;2.63;2.00;;;9.90;99.90;;;;;;5009163;28;20448;-49
2023/04/05 06:07:43;;;;;;;2.50;2.27;;;9.80;99.90;;;;;;5007873;28;20440;-49
2023/04/05 06:10:12;;;;;;;2.07;1.80;;;9.80;99.90;;;;;;5012351;28;20813;-48
2023/04/05 06:12:40;;;;;;;4.13;2.97;;;9.80;99.90;;;;;;5007034;28;20477;-50
2023/04/05 06:15:10;;;;;;;2.10;1.90;;;9.80;99.90;;;;;;5010255;28;20538;-48
2023/04/05 06:17:41;;;;;;;2.43;1.90;;;9.80;99.90;;;;;;5007256;28;20460;-48
2023/04/05 06:20:11;;;;;;;2.07;1.80;;;9.80;99.90;;;;;;5006749;28;20460;-49
2023/04/05 06:22:40;;;;;;;2.73;2.40;;;9.80;99.90;;;;;;5000778;28;20450;-48
2023/04/05 06:25:11;;;;;;;2.53;2.30;;;9.80;99.90;;;;;;5007777;28;20478;-49
2023/04/05 06:27:40;;;;;;;3.33;2.10;;;9.80;99.90;;;;;;5005814;28;20545;-49
2023/04/05 06:30:10;;;;;;;2.10;1.90;;;9.80;99.90;;;;;;5005327;28;20850;-48
2023/04/05 06:32:39;;;;;;;3.03;2.20;;;9.80;99.90;;;;;;5008697;28;20557;-48
2023/04/05 06:35:08;;;;;;;4.77;2.00;;;9.70;99.90;;;;;;5005739;28;20481;-48
2023/04/05 06:37:38;;;;;;;3.53;2.70;;;9.80;99.90;;;;;;5008106;28;20453;-48
2023/04/05 06:40:08;;;;;;;3.27;1.93;;;9.80;99.90;;;;;;5020192;28;20447;-49
2023/04/05 06:42:38;;;;;;;3.10;2.30;;;9.80;99.90;;;;;;5017238;28;21061;-49
2023/04/05 06:45:11;;;;;;;2.77;1.80;;;9.70;99.90;;;;;;5005738;28;20477;-48
2023/04/05 06:47:40;;;;;;;3.83;2.50;;;9.80;99.90;;;;;;5008132;28;20859;-49
2023/04/05 06:50:10;;;;;;;4.20;2.90;;;9.80;99.90;;;;;;5005600;28;20931;-49
2023/04/05 06:52:40;;;;;;;6.60;2.60;;;9.80;99.90;;;;;;5006688;28;20547;-48
2023/04/05 06:55:09;;;;;;;4.10;3.40;;;9.80;99.90;;;;;;5008740;28;20512;-49
2023/04/05 06:57:39;;;;;;;4.10;3.60;;;9.80;99.90;;;;;;5008190;28;20441;-49
2023/04/05 07:00:11;;;;;;;7.00;3.60;;;9.80;99.80;;;;;;5009142;28;20441;-49
2023/04/05 07:02:40;;;;;;;2.93;2.50;;;9.80;99.80;;;;;;5006405;28;20471;-50
2023/04/05 07:05:09;;;;;;;3.50;2.20;;;9.80;99.90;;;;;;5022592;28;20487;-49
2023/04/05 07:07:39;;;;;;;3.27;2.13;;;9.80;99.90;;;;;;5011000;28;20476;-49
2023/04/05 07:10:09;;;;;;;3.30;2.63;;;9.90;99.90;;;;;;5014075;28;20465;-49
2023/04/05 07:12:40;;;;;;;3.37;2.53;;;9.80;99.90;;;;;;5043910;28;20480;-50
2023/04/05 07:15:09;;;;;;;2.83;2.60;;;9.80;99.90;;;;;;5045158;23;20468;-65
2023/04/05 07:17:38;;;;;;;2.17;1.97;;;9.80;99.90;;;;;;4997073;28;20485;-67
2023/04/05 07:20:08;;;;;;;4.53;2.13;;;9.90;99.90;;;;;;4996741;28;20534;-65
2023/04/05 07:22:36;;;;;;;2.80;2.30;;;9.90;99.90;;;;;;4985441;28;20863;-67
2023/04/05 07:25:07;;;;;;;2.47;2.27;;;9.80;99.90;;;;;;4978506;28;20561;-66
2023/04/05 07:27:38;;;;;;;3.27;2.17;;;9.90;99.90;;;;;;4975569;28;20438;-67
2023/04/05 07:30:09;;;;;;;3.40;2.20;;;9.90;99.90;;;;;;4974877;28;20503;-67
2023/04/05 07:32:38;;;;;;;2.13;1.90;;;9.90;99.90;;;;;;4979418;28;20451;-66
2023/04/05 07:35:08;;;;;;;2.53;2.17;;;9.90;99.90;;;;;;4985486;28;20493;-67
2023/04/05 07:37:37;;;;;;;2.60;1.90;;;9.90;99.90;;;;;;4995451;28;20496;-65
2023/04/05 07:40:09;;;;;;;2.37;2.03;;;9.90;99.90;;;;;;4986830;28;20474;-65
2023/04/05 07:42:39;;;;;;;2.83;2.27;;;9.90;99.90;;;;;;4976125;28;20530;-67
2023/04/05 07:45:10;;;;;;;2.60;2.00;;;9.90;99.90;;;;;;4986736;28;20998;-67
2023/04/05 07:47:39;;;;;;;2.87;2.23;;;9.90;99.90;;;;;;4985199;28;20469;-67
2023/04/05 07:50:10;;;;;;;2.50;2.30;;;9.90;99.90;;;;;;4983573;28;20472;-67
2023/04/05 07:52:39;;;;;;;2.50;2.17;;;10.00;99.90;;;;;;4980115;28;20532;-66
2023/04/05 07:55:09;;;;;;;2.73;2.43;;;10.00;99.90;;;;;;4984063;28;20534;-65
2023/04/05 07:57:38;;;;;;;2.30;1.90;;;10.00;99.90;;;;;;4980525;28;20487;-65
2023/04/05 08:00:12;;;;;;;2.33;1.80;;;10.00;99.90;;;;;;4975664;28;20522;-67
2023/04/05 08:02:40;;;;;;;2.47;2.27;;;10.00;99.90;;;;;;4983463;28;20452;-66
2023/04/05 08:05:10;;;;;;;2.60;2.40;;;10.00;99.90;;;;;;4984652;28;20482;-67
2023/04/05 08:07:39;;;;;;;2.97;2.77;;;10.00;99.90;;;;;;5002838;28;20433;-66
2023/04/05 08:10:09;;;;;;;5.13;2.90;;;10.00;99.80;;;;;;4971638;28;20473;-67
2023/04/05 08:12:38;;;;;;;3.70;3.27;;;10.00;99.80;;;;;;4980978;28;21102;-66
2023/04/05 08:15:07;;;;;;;3.27;2.83;;;10.00;99.60;;;;;;4974799;28;20504;-65
2023/04/05 08:17:38;;;;;;;4.57;2.90;;;10.00;99.40;;;;;;4982307;28;20528;-65
2023/04/05 08:20:07;;;;;;;3.00;2.70;;;10.00;99.30;;;;;;4976851;28;20469;-66
2023/04/05 08:22:36;;;;;;;3.47;3.07;;;10.00;99.10;;;;;;4985245;28;20553;-73
2023/04/05 08:25:06;;;;;;;4.97;3.50;;;10.00;99.30;;;;;;4984959;28;20439;-73
2023/04/05 08:27:35;;;;;;;6.73;3.63;;;10.00;98.60;;;;;;4985087;28;20937;-73
2023/04/05 08:30:04;;;;;;;2.77;2.40;;;10.10;97.70;;;;;;4974062;28;20457;-73
2023/04/05 08:32:34;;;;;;;3.83;2.80;;;10.10;98.40;;;;;;4975432;28;20541;-73
2023/04/05 08:35:04;;;;;;;3.80;2.67;;;10.10;98.40;;;;;;4986018;28;20521;-74
2023/04/05 08:37:34;;;;;;;3.80;3.23;;;10.10;98.40;;;;;;5000464;28;20488;-73
2023/04/05 08:40:04;;;;;;;5.03;3.10;;;10.10;98.80;;;;;;4974267;28;20550;-73
2023/04/05 08:42:36;;;;;;;3.77;3.30;;;10.10;98.40;;;;;;4973550;28;20443;-73
2023/04/05 08:45:09;;;;;;;5.50;3.13;;;10.10;98.30;;;;;;4980998;28;20506;-73
2023/04/05 08:47:38;;;;;;;5.80;2.90;;;10.10;96.50;;;;;;4976032;28;20532;-73
2023/04/05 08:50:12;;;;;;;4.63;3.23;;;10.10;96.90;;;;;;4975853;28;20888;-74
2023/04/05 08:52:45;;;;;;;4.13;3.37;;;10.10;97.30;;;;;;4981525;28;20543;-73
2023/04/05 08:55:14;;;;;;;3.97;3.10;;;10.10;97.50;;;;;;4980620;28;20461;-73
2023/04/05 08:57:44;;;;;;;4.73;3.43;;;10.10;97.70;;;;;;4985083;28;20472;-73
2023/04/05 09:00:14;;;;;;;5.70;3.00;;;10.10;97.90;;;;;;4977251;28;20515;-73
2023/04/05 09:02:44;;;;;;;3.13;2.40;;;10.10;97.90;;;;;;4981916;28;20965;-73
2023/04/05 09:05:19;;;;;;;3.63;3.00;;;10.10;98.30;;;;;;4983988;28;20491;-74
2023/04/05 09:07:49;;;;;;;2.70;2.50;;;10.10;98.30;;;;;;4984979;28;20436;-74
2023/04/05 09:10:19;;;;;;;3.47;2.80;;;10.10;98.00;;;;;;4977417;28;20481;-73
2023/04/05 09:12:48;;;;;;;3.07;2.67;;;10.10;98.40;;;;;;4987979;28;20448;-73
2023/04/05 09:15:23;;;;;;;4.13;3.00;;;10.10;98.00;;;;;;4985315;28;20581;-73
2023/04/05 09:17:52;;;;;;;5.80;3.00;;;10.10;98.30;;;;;;4985739;28;20524;-73
2023/04/05 09:20:22;;;;;;;2.93;2.40;;;10.10;98.30;;;;;;4982222;28;20822;-74
2023/04/05 09:22:51;;;;;;;3.50;2.33;;;10.10;98.50;;;;;;4984797;28;20457;-72
2023/04/05 09:25:35;;;;;;;4.90;2.90;;;10.10;98.60;;;;;;4985542;28;20825;-73
2023/04/05 09:28:04;;;;;;;2.70;2.17;;;10.10;98.50;;;;;;4966412;28;20822;-74
2023/04/05 09:30:34;;;;;;;2.60;2.40;;;10.10;98.70;;;;;;4963341;28;20602;-73
2023/04/05 09:33:07;;;;;;;4.83;2.80;;;10.00;98.60;;;;;;4998254;28;20438;-72
2023/04/05 09:35:37;;;;;;;3.33;2.70;;;10.00;98.40;;;;;;4984607;28;21029;-72
2023/04/05 09:38:06;;;;;;;3.47;2.63;;;10.10;98.70;;;;;;4985353;28;21042;-73
2023/04/05 09:40:44;;;;;;;3.33;3.03;;;10.10;98.90;;;;;;4981104;28;20470;-73
2023/04/05 09:43:36;;;;;;;3.80;2.70;;;10.00;98.40;;;;;;4985037;28;20435;-73
2023/04/05 09:46:05;;;;;;;2.57;2.37;;;10.10;98.60;;;;;;4962878;28;20917;-73
2023/04/05 09:48:47;;;;;;;4.00;2.90;;;10.10;98.80;;;;;;4981791;28;20830;-73
2023/04/05 09:51:17;;;;;;;3.13;2.60;;;10.10;99.00;;;;;;4975633;28;20909;-74
2023/04/05 09:54:01;;;;;;;3.03;2.70;;;10.00;99.10;;;;;;4987943;28;21116;-73
2023/04/05 09:56:33;;;;;;;3.67;2.73;;;10.00;99.20;;;;;;4985758;28;20511;-72
2023/04/05 09:59:05;;;;;;;3.63;2.63;;;10.00;99.20;;;;;;4983844;28;20513;-73
2023/04/05 10:01:34;;;;;;;3.20;2.20;;;10.00;99.30;;;;;;4981828;28;21063;-73
2023/04/05 10:04:03;;;;;;;6.23;3.40;;;10.00;99.30;;;;;;4988048;28;20531;-73
2023/04/05 10:06:38;;;;;;;4.80;2.93;;;10.00;99.40;;;;;;4984840;28;20485;-73
2023/04/05 10:09:08;;;;;;;2.93;2.60;;;10.00;99.20;;;;;;4962089;28;20965;-73
2023/04/05 10:11:38;;;;;;;3.80;2.40;;;10.00;99.40;;;;;;4983084;28;20468;-72
2023/04/05 10:14:08;;;;;;;2.60;2.40;;;10.00;99.50;;;;;;4984005;28;20866;-73
2023/04/05 10:16:42;;;;;;;5.60;3.83;;;10.00;98.90;;;;;;4982792;28;20485;-73
2023/04/05 10:19:19;;;;;;;3.70;2.50;;;10.00;99.00;;;;;;4985388;28;20474;-74
2023/04/05 10:21:51;;;;;;;2.67;2.43;;;10.00;99.30;;;;;;4979430;28;21037;-73
2023/04/05 10:24:36;;;;;;;3.47;2.63;;;10.00;99.40;;;;;;4974910;28;20533;-73
2023/04/05 10:27:08;;;;;;;2.30;2.00;;;10.00;99.50;;;;;;4980890;28;20513;-72
2023/04/05 10:29:43;;;;;;;15.30;8.60;;;10.00;99.70;;;;;;4983167;28;20462;-74
2023/04/05 10:32:19;;;;;;;7.60;5.10;;;10.00;90.60;;;;;;4984236;28;20446;-73
2023/04/05 10:34:57;;;;;;;5.70;3.87;;;10.00;93.20;;;;;;4960610;28;20521;-74
2023/04/05 10:37:36;;;;;;;9.47;5.37;;;10.00;96.70;;;;;;4982105;28;21030;-73
2023/04/05 10:40:10;;;;;;;10.50;5.17;;;10.00;96.40;;;;;;4986057;28;20471;-74
2023/04/05 10:42:43;;;;;;;6.83;4.37;;;10.00;97.00;;;;;;4986197;28;20446;-74
2023/04/05 10:45:14;;;;;;;10.83;5.07;;;10.00;97.30;;;;;;4980693;28;20508;-73
2023/04/05 10:47:47;;;;;;;13.30;4.00;;;10.00;97.40;;;;;;4983033;28;20492;-74
2023/04/05 10:50:21;;;;;;;5.40;4.27;;;10.00;97.40;;;;;;4969828;28;20464;-73
2023/04/05 10:52:52;;;;;;;8.30;4.73;;;10.00;97.60;;;;;;4986931;28;20865;-74
2023/04/05 10:55:21;;;;;;;11.13;5.10;;;10.00;97.90;;;;;;4987403;28;20588;-74
2023/04/05 10:57:51;;;;;;;7.27;5.17;;;10.00;97.00;;;;;;4982965;28;20470;-74
2023/04/05 11:00:20;;;;;;;9.50;5.93;;;10.10;96.40;;;;;;4981129;28;20906;-73
2023/04/05 11:02:54;;;;;;;7.07;5.50;;;10.10;94.20;;;;;;4987391;28;20453;-72
2023/04/05 11:05:30;;;;;;;9.17;6.90;;;10.10;93.60;;;;;;4986009;28;20437;-74
2023/04/05 11:08:08;;;;;;;9.30;6.57;;;10.10;92.30;;;;;;4979931;28;20445;-74
2023/04/05 11:10:38;;;;;;;10.20;6.43;;;10.10;90.00;;;;;;4977766;28;20461;-73
2023/04/05 11:13:10;;;;;;;11.20;7.17;;;10.10;90.20;;;;;;4981434;28;20536;-73
2023/04/05 11:15:39;;;;;;;8.50;6.33;;;10.10;90.90;;;;;;4985205;28;20492;-74
2023/04/05 11:18:09;;;;;;;8.87;7.07;;;10.10;90.00;;;;;;4985408;28;20561;-74
2023/04/05 11:20:47;;;;;;;14.50;7.40;;;10.10;90.20;;;;;;4983366;28;20488;-74
2023/04/05 11:23:18;;;;;;;9.10;6.70;;;10.20;88.20;;;;;;4984390;28;20448;-75
2023/04/05 11:25:50;;;;;;;11.63;7.00;;;10.10;84.30;;;;;;4983563;28;20549;-74
2023/04/05 11:28:40;;;;;;;13.17;7.57;;;10.10;79.90;;;;;;4982383;28;20438;-73
2023/04/05 11:31:14;;;;;;;11.90;7.63;;;10.10;84.80;;;;;;4972569;28;20515;-73
2023/04/05 11:33:58;;;;;;;8.53;6.90;;;10.10;85.00;;;;;;4974034;28;20452;-74
2023/04/05 11:36:43;;;;;;;12.53;6.67;;;10.10;86.90;;;;;;4985266;28;20950;-72
2023/04/05 11:39:27;;;;;;;12.10;7.60;;;10.10;82.20;;;;;;5000455;28;20480;-73
2023/04/05 11:42:01;;;;;;;13.40;8.43;;;10.10;78.80;;;;;;4977572;28;20471;-73
2023/04/05 11:44:39;;;;;;;8.97;6.67;;;10.10;80.50;;;;;;4962740;28;20528;-74
2023/04/05 11:47:07;;;;;;;7.77;6.47;;;10.10;83.50;;;;;;4982454;28;20489;-75
2023/04/05 11:49:37;;;;;;;7.60;5.83;;;10.00;85.60;;;;;;4963747;28;20498;-73
2023/04/05 11:52:13;;;;;;;8.73;6.17;;;10.00;87.90;;;;;;4982392;28;20459;-73
2023/04/05 11:54:48;;;;;;;9.13;6.20;;;10.00;89.70;;;;;;4974755;28;20545;-72
2023/04/05 11:57:20;;;;;;;6.90;5.23;;;10.00;89.20;;;;;;4984841;28;20516;-72
2023/04/05 11:59:51;;;;;;;6.97;4.97;;;10.00;90.10;;;;;;4969666;28;20521;-74
2023/04/05 12:02:20;;;;;;;6.73;5.90;;;10.00;91.10;;;;;;4979670;28;20509;-71
2023/04/05 12:04:55;;;;;;;8.37;6.90;;;10.00;90.80;;;;;;4980862;28;20462;-73
2023/04/05 12:07:27;;;;;;;7.27;5.03;;;10.00;90.80;;;;;;4981245;28;20457;-73
2023/04/05 12:10:03;;;;;;;8.23;6.43;;;10.00;91.60;;;;;;4982293;28;20462;-73
2023/04/05 12:12:37;;;;;;;6.33;5.40;;;10.00;92.20;;;;;;4998094;28;20448;-73
2023/04/05 12:15:08;;;;;;;7.03;4.83;;;10.00;91.20;;;;;;4976511;28;20568;-73
2023/04/05 12:17:48;;;;;;;7.33;5.47;;;10.10;91.60;;;;;;4984249;28;20456;-72
2023/04/05 12:20:20;;;;;;;8.00;5.30;;;10.00;92.10;;;;;;4963080;28;20528;-73
2023/04/05 12:22:49;;;;;;;6.17;4.70;;;10.00;92.10;;;;;;4980340;28;20487;-73
2023/04/05 12:25:20;;;;;;;5.40;4.53;;;10.00;91.80;;;;;;4972229;28;20479;-74
2023/04/05 12:27:49;;;;;;;8.57;5.00;;;10.10;92.20;;;;;;4985426;28;20436;-72
2023/04/05 12:30:19;;;;;;;7.40;6.20;;;10.10;92.50;;;;;;4982189;28;20587;-73
2023/04/05 12:32:51;;;;;;;6.37;4.77;;;10.10;92.20;;;;;;4974399;28;20477;-73
2023/04/05 12:35:21;;;;;;;6.67;5.00;;;10.10;92.50;;;;;;4975087;28;20873;-74
2023/04/05 12:37:51;;;;;;;4.93;4.47;;;10.10;90.80;;;;;;4985069;28;20887;-73
2023/04/05 12:40:23;;;;;;;7.00;4.87;;;10.10;91.10;;;;;;4983202;28;20488;-74
2023/04/05 12:42:52;;;;;;;5.57;4.27;;;10.10;91.70;;;;;;4985603;28;21019;-73
2023/04/05 12:45:23;;;;;;;5.90;4.90;;;10.10;91.90;;;;;;4984930;28;20520;-74
2023/04/05 12:47:53;;;;;;;7.23;5.13;;;10.10;91.70;;;;;;5001103;28;20453;-73
2023/04/05 12:50:27;;;;;;;6.13;4.70;;;10.10;91.40;;;;;;4986086;28;20546;-73
2023/04/05 12:52:57;;;;;;;7.80;4.40;;;10.10;91.60;;;;;;4984911;28;20449;-73
2023/04/05 12:55:29;;;;;;;6.60;4.20;;;10.10;92.00;;;;;;4984232;28;20434;-72
2023/04/05 12:58:00;;;;;;;4.53;3.67;;;10.10;92.20;;;;;;4988573;28;20444;-73
2023/04/05 13:00:30;;;;;;;13.90;6.27;;;10.10;91.40;;;;;;4979570;28;20481;-73
2023/04/05 13:02:59;;;;;;;9.63;6.10;;;10.10;69.10;;;;;;4990024;28;20440;-74
2023/04/05 13:05:29;;;;;;;9.33;6.17;;;10.10;67.10;;;;;;4983924;28;20896;-73
2023/04/05 13:07:58;;;;;;;14.07;6.53;;;10.10;68.00;;;;;;4987964;28;20853;-73
2023/04/05 13:10:28;;;;;;;10.17;5.00;;;10.10;67.70;;;;;;4984993;28;20810;-73
2023/04/05 13:12:57;;;;;;;9.53;6.10;;;10.10;72.80;;;;;;4986165;28;20467;-74
2023/04/05 13:15:26;;;;;;;10.03;5.73;;;10.20;77.30;;;;;;4978784;28;20499;-73